TimeEDT,TemperatureF,Dew PointF,Humidity,Sea Level PressureIn,VisibilityMPH,Wind Direction,Wind SpeedMPH,Gust SpeedMPH,PrecipitationIn,Events,Conditions,WindDirDegrees,DateUTC
12:58 AM,30.7,30.7,100,30.17,10.0,NE,5.8,-,N/A,,Clear,50,2014-03-29 04:58:00
1:38 AM,32.0,32.0,100,30.13,10.0,NNE,5.8,-,N/A,,Mostly Cloudy,30,2014-03-29 05:38:00
1:48 AM,32.0,32.0,100,30.13,10.0,NNE,6.9,-,N/A,,Mostly Cloudy,30,2014-03-29 05:48:00
1:58 AM,32.7,32.7,100,30.17,10.0,NNE,6.9,-,N/A,,Overcast,30,2014-03-29 05:58:00
2:58 AM,33.1,33.1,100,30.15,10.0,NE,5.8,-,N/A,,Overcast,40,2014-03-29 06:58:00
3:23 AM,32.0,32.0,100,30.10,10.0,NNE,5.8,-,N/A,,Overcast,30,2014-03-29 07:23:00
3:58 AM,33.6,33.6,100,30.12,10.0,NE,8.1,-,N/A,,Overcast,40,2014-03-29 07:58:00
4:18 AM,32.0,32.0,100,30.09,10.0,NE,8.1,-,N/A,,Overcast,40,2014-03-29 08:18:00
4:28 AM,32.0,32.0,100,30.08,10.0,NNE,8.1,-,N/A,,Overcast,30,2014-03-29 08:28:00
4:33 AM,32.0,32.0,100,30.08,10.0,NNE,8.1,-,N/A,,Overcast,20,2014-03-29 08:33:00
4:58 AM,34.0,34.0,100,30.11,10.0,NNW,6.9,-,N/A,,Overcast,340,2014-03-29 08:58:00
5:58 AM,34.2,34.2,100,30.12,10.0,North,6.9,-,N/A,,Overcast,10,2014-03-29 09:58:00
6:03 AM,33.8,33.8,100,30.08,10.0,North,6.9,-,N/A,,Overcast,10,2014-03-29 10:03:00
6:18 AM,33.8,33.8,100,30.08,9.0,North,6.9,-,N/A,,Overcast,10,2014-03-29 10:18:00
6:21 AM,33.8,33.8,100,30.08,8.0,NNE,6.9,-,N/A,,Overcast,20,2014-03-29 10:21:00
6:51 AM,32.0,32.0,100,30.09,4.0,North,5.8,-,N/A,Snow,Light Snow,10,2014-03-29 10:51:00
6:58 AM,32.0,32.0,100,30.12,4.0,North,8.1,-,0.01,Snow,Light Snow,10,2014-03-29 10:58:00
7:24 AM,32.0,32.0,100,30.09,3.0,North,8.1,-,N/A,Snow,Light Snow,360,2014-03-29 11:24:00
7:32 AM,32.0,32.0,100,30.10,0.2,North,8.1,-,N/A,Snow,Heavy Snow,360,2014-03-29 11:32:00
7:55 AM,32.0,32.0,100,30.09,0.5,North,9.2,-,N/A,Snow,Snow,10,2014-03-29 11:55:00
7:58 AM,32.0,32.0,100,30.12,0.5,NNE,8.1,-,0.10,Snow,Snow,20,2014-03-29 11:58:00
8:41 AM,32.0,32.0,100,30.08,1.2,NNE,10.4,-,N/A,Snow,Light Snow,30,2014-03-29 12:41:00
8:58 AM,32.7,32.7,100,30.10,1.2,NNE,10.4,-,0.09,Snow,Light Snow,20,2014-03-29 12:58:00
9:30 AM,32.0,32.0,100,30.07,3.0,NNE,9.2,-,N/A,Rain-Snow,Light Rain,20,2014-03-29 13:30:00
9:54 AM,32.0,32.0,100,30.08,4.0,NNE,8.1,-,N/A,,Light Ice Pellets,20,2014-03-29 13:54:00
9:58 AM,33.1,33.1,100,30.12,4.0,NNE,9.2,-,0.02,,Light Ice Pellets,20,2014-03-29 13:58:00
10:09 AM,32.0,32.0,100,30.08,4.0,NNE,9.2,-,N/A,Rain-Snow,Light Rain,30,2014-03-29 14:09:00
10:29 AM,32.0,32.0,100,30.08,3.0,NE,11.5,-,N/A,Rain-Snow,Light Rain,40,2014-03-29 14:29:00
10:58 AM,33.4,33.4,100,30.12,4.0,NE,11.5,-,0.02,Snow,Light Snow,50,2014-03-29 14:58:00
11:19 AM,32.0,32.0,100,30.08,5.0,NE,11.5,-,N/A,Rain,Light Rain,50,2014-03-29 15:19:00
11:58 AM,34.0,34.0,100,30.13,6.0,NNE,10.4,-,0.00,Rain,Light Rain,20,2014-03-29 15:58:00
12:10 PM,33.8,33.8,100,30.09,8.0,North,9.2,-,N/A,,Overcast,10,2014-03-29 16:10:00
12:45 PM,33.8,33.8,100,30.09,10.0,North,10.4,-,N/A,,Overcast,360,2014-03-29 16:45:00
1:34 PM,35.6,35.6,100,30.07,10.0,North,10.4,-,N/A,,Overcast,10,2014-03-29 17:34:00
1:58 PM,35.4,35.4,100,30.11,10.0,North,11.5,-,N/A,,Overcast,360,2014-03-29 17:58:00
2:48 PM,35.6,35.6,100,30.06,10.0,NNE,9.2,17.3,N/A,,Overcast,20,2014-03-29 18:48:00
2:55 PM,36.9,36.9,100,30.09,7.0,North,11.5,-,N/A,,Overcast,10,2014-03-29 18:55:00
2:58 PM,36.9,36.9,100,30.09,10.0,North,10.4,-,N/A,,Overcast,360,2014-03-29 18:58:00
3:58 PM,37.6,37.6,100,30.09,6.0,NNW,17.3,-,N/A,,Overcast,340,2014-03-29 19:58:00
4:58 PM,38.1,38.1,100,30.10,6.0,North,15.0,-,N/A,,Overcast,350,2014-03-29 20:58:00
5:28 PM,39.2,39.2,100,30.07,10.0,NNW,15.0,-,N/A,,Overcast,340,2014-03-29 21:28:00
5:58 PM,38.8,38.8,100,30.11,7.0,NNW,16.1,-,N/A,,Overcast,340,2014-03-29 21:58:00
6:58 PM,38.8,36.5,91,30.14,10.0,North,12.7,-,N/A,,Overcast,350,2014-03-29 22:58:00
7:30 PM,39.2,35.6,87,30.12,10.0,North,11.5,-,N/A,,Overcast,360,2014-03-29 23:30:00
7:58 PM,38.3,35.6,90,30.17,10.0,North,9.2,-,N/A,,Overcast,360,2014-03-29 23:58:00
8:58 PM,37.4,34.0,87,30.18,10.0,NNW,12.7,-,N/A,,Overcast,330,2014-03-30 00:58:00
9:58 PM,34.7,34.7,100,30.21,10.0,NW,9.2,-,N/A,,Mostly Cloudy,320,2014-03-30 01:58:00
10:46 PM,32.0,32.0,100,30.18,10.0,NNW,9.2,-,N/A,,Partly Cloudy,330,2014-03-30 02:46:00
10:58 PM,32.9,32.7,99,30.23,10.0,NW,9.2,-,N/A,,Clear,320,2014-03-30 02:58:00
11:58 PM,30.9,30.9,100,30.23,10.0,NW,8.1,-,N/A,,Clear,320,2014-03-30 03:58:00